Time;durP1;ratioP1;P1;durP2;ratioP2;P2;SDS_P1;SDS_P2;PMS_P1;PMS_P2;Temp;Humidity;BMP_temperature;BMP_pressure;BME280_temperature;BME280_humidity;BME280_pressure;Samples;Min_cycle;Max_cycle;Signal;HPM_P1;HPM_P2
2022/01/28 00:04:45;;;;;;;23.85;13.60;;;;;;;;;;5094805;28;20175;-69
2022/01/28 00:07:11;;;;;;;22.47;13.03;;;;;;;;;;5094329;28;20171;-69
2022/01/28 00:09:37;;;;;;;23.60;13.23;;;;;;;;;;5094331;28;20401;-69
2022/01/28 00:12:03;;;;;;;24.77;13.97;;;;;;;;;;5094292;28;20771;-69
2022/01/28 00:14:40;;;;;;;23.73;14.32;;;;;;;;;;5093975;28;20389;-68
2022/01/28 00:20:18;;;;;;;25.30;13.50;;;;;;;;;;5093952;28;20309;-68
2022/01/28 00:38:51;;;;;;;21.92;13.15;;;;;;;;;;5093826;28;20178;-68
2022/01/28 00:41:17;;;;;;;20.17;13.10;;;;;;;;;;5093736;28;20206;-68
2022/01/28 00:43:43;;;;;;;19.83;12.98;;;;;;;;;;5093830;28;20401;-69
2022/01/28 00:46:09;;;;;;;23.67;12.65;;;;;;;;;;5093708;28;20611;-69
2022/01/28 00:48:35;;;;;;;22.25;13.00;;;;;;;;;;5093673;28;20253;-68
2022/01/28 00:51:01;;;;;;;23.13;13.83;;;;;;;;;;5093719;28;20250;-68
2022/01/28 00:53:27;;;;;;;16.83;12.80;;;;;;;;;;5093588;28;20398;-69
2022/01/28 00:55:54;;;;;;;20.47;12.00;;;;;;;;;;5093670;28;20915;-68
2022/01/28 00:58:20;;;;;;;21.58;13.65;;;;;;;;;;5093563;28;20386;-68
2022/01/28 01:00:46;;;;;;;19.77;11.35;;;;;;;;;;5093505;28;20214;-68
2022/01/28 01:03:12;;;;;;;19.55;11.73;;;;;;;;;;5092316;28;20249;-68
2022/01/28 01:05:38;;;;;;;20.73;12.13;;;;;;;;;;5093574;28;20174;-68
2022/01/28 01:08:05;;;;;;;17.52;11.63;;;;;;;;;;5093509;28;20458;-68
2022/01/28 01:10:31;;;;;;;18.83;12.15;;;;;;;;;;5093494;28;20580;-68
2022/01/28 01:12:58;;;;;;;18.58;11.40;;;;;;;;;;5093427;28;20191;-68
2022/01/28 01:15:29;;;;;;;18.75;12.60;;;;;;;;;;5093378;28;20185;-68
2022/01/28 01:20:54;;;;;;;20.67;11.57;;;;;;;;;;5093334;28;20230;-69
2022/01/28 01:23:30;;;;;;;16.67;10.50;;;;;;;;;;5093622;28;20251;-68
2022/01/28 01:28:32;;;;;;;20.90;10.80;;;;;;;;;;5097653;28;20217;-68
2022/01/28 01:31:00;;;;;;;18.90;11.55;;;;;;;;;;5097577;28;20175;-68
2022/01/28 01:33:28;;;;;;;18.00;12.05;;;;;;;;;;5097269;28;20175;-68
2022/01/28 01:35:54;;;;;;;18.52;11.05;;;;;;;;;;5097446;28;20186;-68
2022/01/28 01:38:26;;;;;;;19.08;11.35;;;;;;;;;;5095890;28;20171;-68
2022/01/28 01:40:56;;;;;;;16.80;10.82;;;;;;;;;;5097071;28;20198;-69
2022/01/28 01:53:50;;;;;;;16.75;10.68;;;;;;;;;;5096942;28;20174;-68
2022/01/28 01:56:16;;;;;;;20.13;12.15;;;;;;;;;;5096904;28;20159;-68
2022/01/28 01:58:42;;;;;;;20.45;12.15;;;;;;;;;;5096863;28;20167;-68
2022/01/28 02:01:08;;;;;;;20.15;12.50;;;;;;;;;;5096671;28;20202;-68
2022/01/28 02:03:34;;;;;;;19.60;12.00;;;;;;;;;;5096675;28;20175;-69
2022/01/28 02:06:01;;;;;;;17.90;12.50;;;;;;;;;;5096725;28;20404;-68
2022/01/28 02:08:27;;;;;;;18.35;10.93;;;;;;;;;;5096593;28;20262;-68
2022/01/28 02:10:57;;;;;;;20.20;11.43;;;;;;;;;;5096499;28;20174;-68
2022/01/28 02:13:23;;;;;;;17.13;11.50;;;;;;;;;;5096446;28;20162;-69
2022/01/28 02:15:49;;;;;;;18.10;12.23;;;;;;;;;;5096475;28;20500;-68
2022/01/28 02:18:15;;;;;;;20.27;11.50;;;;;;;;;;5096292;28;20217;-68
2022/01/28 02:20:44;;;;;;;19.67;11.23;;;;;;;;;;5096357;28;20480;-68
2022/01/28 02:23:10;;;;;;;16.55;11.50;;;;;;;;;;5096317;28;20372;-69
2022/01/28 02:25:36;;;;;;;19.20;11.87;;;;;;;;;;5096224;28;20232;-68
2022/01/28 02:28:05;;;;;;;16.60;10.93;;;;;;;;;;5095283;28;20421;-68
2022/01/28 02:30:31;;;;;;;17.73;11.25;;;;;;;;;;5096131;28;20416;-68
2022/01/28 02:33:08;;;;;;;16.20;10.45;;;;;;;;;;5096340;28;20202;-68
2022/01/28 02:35:34;;;;;;;19.17;11.45;;;;;;;;;;5096319;28;20174;-68
2022/01/28 02:38:00;;;;;;;17.02;11.00;;;;;;;;;;5096193;28;20171;-68
2022/01/28 02:40:26;;;;;;;14.40;10.50;;;;;;;;;;5095795;28;20240;-68
2022/01/28 02:43:15;;;;;;;16.33;11.50;;;;;;;;;;5096216;28;20401;-68
2022/01/28 02:45:40;;;;;;;17.45;10.68;;;;;;;;;;5095682;28;20626;-68
2022/01/28 02:48:14;;;;;;;16.02;10.75;;;;;;;;;;5095830;28;20321;-68
2022/01/28 02:51:00;;;;;;;17.58;10.77;;;;;;;;;;5095768;28;20172;-68
2022/01/28 02:53:29;;;;;;;22.83;10.95;;;;;;;;;;5095938;28;20175;-68
2022/01/28 02:56:02;;;;;;;19.17;11.32;;;;;;;;;;5095625;28;20533;-68
2022/01/28 02:58:28;;;;;;;14.63;11.00;;;;;;;;;;5095574;28;20622;-68
2022/01/28 03:00:55;;;;;;;15.55;10.80;;;;;;;;;;5095549;28;20215;-68
2022/01/28 03:03:24;;;;;;;15.50;10.60;;;;;;;;;;5095553;28;20665;-69
2022/01/28 03:05:53;;;;;;;23.05;11.65;;;;;;;;;;5095713;28;20171;-68
2022/01/28 03:08:25;;;;;;;13.98;10.00;;;;;;;;;;5095430;28;20174;-68
2022/01/28 03:16:21;;;;;;;15.43;9.75;;;;;;;;;;5095308;28;20248;-68
2022/01/28 03:21:25;;;;;;;14.47;9.40;;;;;;;;;;5095174;28;20260;-68
2022/01/28 03:23:51;;;;;;;11.38;9.10;;;;;;;;;;5095070;28;20842;-68
2022/01/28 03:26:21;;;;;;;11.65;9.70;;;;;;;;;;5095092;28;20178;-68
2022/01/28 03:28:47;;;;;;;15.98;10.07;;;;;;;;;;5095020;28;20178;-68
2022/01/28 03:31:13;;;;;;;12.10;8.90;;;;;;;;;;5094980;28;20162;-68
2022/01/28 03:33:39;;;;;;;13.38;9.77;;;;;;;;;;5094883;28;20687;-69
2022/01/28 03:36:08;;;;;;;11.03;9.20;;;;;;;;;;5094938;28;20167;-68
2022/01/28 03:38:34;;;;;;;16.50;11.68;;;;;;;;;;5094796;28;20440;-69
2022/01/28 03:41:01;;;;;;;14.07;9.65;;;;;;;;;;5094997;28;20210;-68
2022/01/28 03:43:27;;;;;;;14.55;9.75;;;;;;;;;;5094739;28;20255;-68
2022/01/28 03:45:53;;;;;;;12.70;9.37;;;;;;;;;;5094745;28;20199;-68
2022/01/28 03:48:19;;;;;;;13.40;9.67;;;;;;;;;;5094130;28;20405;-68
2022/01/28 03:50:45;;;;;;;11.37;8.67;;;;;;;;;;5094645;28;20417;-68
2022/01/28 03:53:11;;;;;;;14.60;8.93;;;;;;;;;;5094811;28;20488;-68
2022/01/28 03:55:37;;;;;;;11.80;9.40;;;;;;;;;;5094488;28;20272;-68
2022/01/28 03:58:03;;;;;;;12.33;9.70;;;;;;;;;;5094548;28;20372;-68
2022/01/28 04:00:31;;;;;;;13.68;9.85;;;;;;;;;;5094575;28;20504;-68
2022/01/28 04:03:11;;;;;;;13.10;9.75;;;;;;;;;;5094385;28;20159;-68
2022/01/28 04:13:53;;;;;;;14.68;9.30;;;;;;;;;;5094179;28;20216;-68
2022/01/28 04:18:45;;;;;;;11.00;9.03;;;;;;;;;;5094111;28;20713;-68
2022/01/28 04:21:11;;;;;;;12.77;9.50;;;;;;;;;;5093980;28;20472;-68
2022/01/28 04:23:37;;;;;;;12.63;9.23;;;;;;;;;;5094020;28;20480;-68
2022/01/28 04:26:03;;;;;;;12.35;9.35;;;;;;;;;;5093963;28;20561;-68
2022/01/28 04:28:29;;;;;;;13.60;10.03;;;;;;;;;;5093961;28;20301;-68
2022/01/28 04:30:55;;;;;;;14.07;9.52;;;;;;;;;;5093845;28;20439;-68
2022/01/28 04:33:21;;;;;;;13.47;9.93;;;;;;;;;;5094136;28;20225;-68
2022/01/28 04:35:51;;;;;;;13.15;9.70;;;;;;;;;;5093874;28;20867;-68
2022/01/28 04:38:30;;;;;;;14.07;9.75;;;;;;;;;;5093781;28;20241;-68
2022/01/28 04:44:07;;;;;;;11.82;8.80;;;;;;;;;;5094035;28;20174;-69
2022/01/28 04:46:42;;;;;;;14.73;10.00;;;;;;;;;;5093575;28;20226;-68
2022/01/28 04:49:14;;;;;;;14.02;9.90;;;;;;;;;;5093667;28;20529;-68
2022/01/28 04:52:07;;;;;;;12.98;10.90;;;;;;;;;;5093614;28;20156;-68
2022/01/28 05:00:11;;;;;;;13.57;9.80;;;;;;;;;;5093220;28;20712;-68
2022/01/28 05:05:32;;;;;;;14.10;10.20;;;;;;;;;;5093877;28;20171;-68
2022/01/28 05:11:00;;;;;;;15.60;10.63;;;;;;;;;;5093836;28;20610;-68
2022/01/28 05:16:52;;;;;;;14.55;10.15;;;;;;;;;;5077416;28;20626;-68
2022/01/28 05:23:22;;;;;;;13.48;10.02;;;;;;;;;;5093371;28;20214;-68
2022/01/28 05:27:44;;;;;;;11.32;9.43;;;;;;;;;;5093715;28;20266;-68
2022/01/28 05:30:10;;;;;;;11.05;9.30;;;;;;;;;;5093346;28;20234;-68
2022/01/28 05:32:36;;;;;;;14.75;10.30;;;;;;;;;;5093337;28;20519;-68
2022/01/28 05:35:03;;;;;;;14.70;10.10;;;;;;;;;;5093464;28;20163;-68
2022/01/28 05:37:28;;;;;;;15.63;10.70;;;;;;;;;;5093915;28;20297;-69
2022/01/28 05:39:54;;;;;;;12.43;10.33;;;;;;;;;;5093881;28;20188;-69
2022/01/28 05:42:20;;;;;;;18.07;11.27;;;;;;;;;;5093574;28;20876;-69
2022/01/28 05:44:46;;;;;;;14.03;10.00;;;;;;;;;;5093623;28;20420;-69
2022/01/28 05:47:15;;;;;;;12.33;9.20;;;;;;;;;;5093359;28;20405;-69
2022/01/28 05:49:42;;;;;;;13.52;10.55;;;;;;;;;;5093251;28;20904;-68
2022/01/28 05:52:08;;;;;;;14.07;10.40;;;;;;;;;;5093384;28;20167;-68
2022/01/28 05:54:34;;;;;;;15.85;11.48;;;;;;;;;;5093117;28;20167;-69
2022/01/28 05:57:00;;;;;;;17.00;10.82;;;;;;;;;;5093263;28;20191;-69
2022/01/28 05:59:26;;;;;;;10.17;9.10;;;;;;;;;;5093007;28;20171;-69
2022/01/28 06:01:52;;;;;;;15.90;10.77;;;;;;;;;;5092946;28;20522;-68
2022/01/28 06:04:21;;;;;;;15.90;10.93;;;;;;;;;;5093046;28;20485;-70
2022/01/28 06:06:47;;;;;;;16.83;10.65;;;;;;;;;;5093240;28;20183;-68
2022/01/28 06:09:13;;;;;;;14.45;10.48;;;;;;;;;;5092938;28;20156;-68
2022/01/28 06:11:39;;;;;;;15.00;10.13;;;;;;;;;;5093771;28;20176;-68
2022/01/28 06:14:06;;;;;;;14.07;10.65;;;;;;;;;;5095595;28;20452;-68
2022/01/28 06:16:32;;;;;;;12.40;10.13;;;;;;;;;;5096715;28;20197;-69
2022/01/28 06:18:58;;;;;;;13.90;10.30;;;;;;;;;;5096271;28;20691;-68
2022/01/28 06:21:24;;;;;;;16.03;11.00;;;;;;;;;;5096391;28;20285;-69
2022/01/28 06:23:52;;;;;;;16.13;10.93;;;;;;;;;;5096249;28;20739;-69
2022/01/28 06:26:18;;;;;;;15.70;11.52;;;;;;;;;;5096279;28;20393;-69
2022/01/28 06:28:44;;;;;;;14.00;10.73;;;;;;;;;;5096216;28;20163;-69
2022/01/28 06:31:10;;;;;;;14.43;9.50;;;;;;;;;;5096192;28;20304;-68
2022/01/28 06:33:36;;;;;;;15.32;10.13;;;;;;;;;;5096215;28;20170;-68
2022/01/28 06:36:03;;;;;;;15.53;9.63;;;;;;;;;;5096324;28;20568;-68
2022/01/28 06:38:29;;;;;;;14.30;10.35;;;;;;;;;;5096049;28;20754;-68
2022/01/28 06:40:55;;;;;;;13.60;9.60;;;;;;;;;;5095970;28;20237;-68
2022/01/28 06:43:21;;;;;;;13.57;10.38;;;;;;;;;;5095829;28;20167;-69
2022/01/28 06:45:47;;;;;;;15.82;10.38;;;;;;;;;;5096143;28;20224;-68
2022/01/28 06:48:16;;;;;;;13.07;10.00;;;;;;;;;;5095764;28;20168;-69
2022/01/28 06:50:42;;;;;;;13.43;10.52;;;;;;;;;;5094534;28;20186;-68
2022/01/28 06:53:09;;;;;;;15.80;10.05;;;;;;;;;;5095722;28;20618;-69
2022/01/28 06:55:35;;;;;;;16.63;11.32;;;;;;;;;;5095932;28;20171;-69
2022/01/28 06:58:01;;;;;;;17.15;11.43;;;;;;;;;;5095756;28;20657;-69
2022/01/28 07:00:27;;;;;;;18.00;11.35;;;;;;;;;;5095490;28;20243;-69
2022/01/28 07:02:53;;;;;;;18.00;11.05;;;;;;;;;;5095847;28;20255;-69
2022/01/28 07:05:19;;;;;;;16.80;10.73;;;;;;;;;;5095573;28;20175;-68
2022/01/28 07:07:47;;;;;;;16.30;10.37;;;;;;;;;;5095504;28;20409;-68
2022/01/28 07:10:13;;;;;;;14.77;10.95;;;;;;;;;;5095524;28;20422;-68
2022/01/28 07:12:39;;;;;;;18.83;11.93;;;;;;;;;;5095392;28;20703;-68
2022/01/28 07:15:05;;;;;;;18.10;12.02;;;;;;;;;;5094010;28;20444;-69
2022/01/28 07:17:31;;;;;;;20.40;11.88;;;;;;;;;;5095248;28;20201;-68
2022/01/28 07:19:57;;;;;;;16.27;11.60;;;;;;;;;;5093836;28;20261;-66
2022/01/28 07:22:23;;;;;;;21.63;11.70;;;;;;;;;;5093882;28;20437;-66
2022/01/28 07:24:49;;;;;;;23.67;12.83;;;;;;;;;;5094367;28;20409;-68
2022/01/28 07:27:19;;;;;;;21.73;13.07;;;;;;;;;;5095042;28;20897;-67
2022/01/28 07:29:47;;;;;;;23.55;13.13;;;;;;;;;;5095044;28;20406;-65
2022/01/28 07:32:13;;;;;;;26.75;13.18;;;;;;;;;;5094908;28;20163;-69
2022/01/28 07:34:39;;;;;;;21.07;13.00;;;;;;;;;;5094926;28;20176;-67
2022/01/28 07:37:05;;;;;;;20.50;12.80;;;;;;;;;;5093622;28;20421;-68
2022/01/28 07:39:31;;;;;;;22.03;13.97;;;;;;;;;;5094820;28;20504;-67
2022/01/28 07:41:57;;;;;;;18.77;12.68;;;;;;;;;;5094674;28;20464;-66
2022/01/28 07:44:23;;;;;;;27.75;16.50;;;;;;;;;;5094690;28;20160;-66
2022/01/28 07:46:49;;;;;;;23.83;14.43;;;;;;;;;;5094985;28;20202;-67
2022/01/28 07:49:15;;;;;;;29.30;16.92;;;;;;;;;;5094603;28;20880;-67
2022/01/28 07:51:42;;;;;;;23.98;14.65;;;;;;;;;;5094606;28;20583;-67
2022/01/28 07:54:08;;;;;;;21.10;12.90;;;;;;;;;;5094781;28;20202;-67
2022/01/28 07:56:34;;;;;;;23.30;13.15;;;;;;;;;;5094520;28;20169;-66
2022/01/28 07:59:00;;;;;;;18.10;11.70;;;;;;;;;;5094552;28;20167;-67
2022/01/28 08:01:26;;;;;;;22.45;13.43;;;;;;;;;;5094380;28;20229;-67
2022/01/28 08:03:52;;;;;;;18.40;12.90;;;;;;;;;;5094265;28;20610;-67
2022/01/28 08:06:18;;;;;;;20.63;12.40;;;;;;;;;;5094540;28;20413;-67
2022/01/28 08:08:44;;;;;;;31.97;18.30;;;;;;;;;;5094312;28;20232;-66
2022/01/28 08:11:10;;;;;;;19.63;13.43;;;;;;;;;;5094233;28;20405;-66
2022/01/28 08:13:36;;;;;;;18.17;12.68;;;;;;;;;;5094456;28;20209;-66
2022/01/28 08:16:02;;;;;;;20.17;12.30;;;;;;;;;;5094394;28;20172;-65
2022/01/28 08:18:28;;;;;;;18.00;12.53;;;;;;;;;;5093940;28;20815;-66
2022/01/28 08:20:54;;;;;;;20.75;12.68;;;;;;;;;;5094073;28;20434;-66
2022/01/28 08:23:36;;;;;;;22.50;12.53;;;;;;;;;;5086842;27;1934551;-67
2022/01/28 08:26:02;;;;;;;17.73;12.60;;;;;;;;;;5131893;28;20173;-65
2022/01/28 08:28:28;;;;;;;21.60;14.10;;;;;;;;;;5131739;28;20516;-66
2022/01/28 08:30:55;;;;;;;20.50;12.65;;;;;;;;;;5131709;28;20184;-66
2022/01/28 08:33:21;;;;;;;20.98;13.30;;;;;;;;;;5131622;28;20173;-66
2022/01/28 08:35:52;;;;;;;18.60;13.30;;;;;;;;;;5131645;28;20169;-67
2022/01/28 08:38:26;;;;;;;19.02;13.25;;;;;;;;;;5131602;28;20155;-67
2022/01/28 08:40:53;;;;;;;16.92;11.77;;;;;;;;;;5131575;28;20679;-67
2022/01/28 08:43:19;;;;;;;17.70;12.93;;;;;;;;;;5131480;28;20405;-66
2022/01/28 08:45:45;;;;;;;20.10;12.23;;;;;;;;;;5112894;28;20307;-66
2022/01/28 08:48:11;;;;;;;18.80;12.85;;;;;;;;;;5131395;28;20411;-66
2022/01/28 08:50:37;;;;;;;22.08;14.02;;;;;;;;;;5131307;28;20170;-66
2022/01/28 08:53:03;;;;;;;16.77;12.43;;;;;;;;;;5131307;28;20270;-65
2022/01/28 08:55:29;;;;;;;18.50;13.20;;;;;;;;;;5131257;28;20839;-66
2022/01/28 08:57:56;;;;;;;22.70;13.83;;;;;;;;;;5131397;28;20408;-66
2022/01/28 09:00:23;;;;;;;22.38;15.60;;;;;;;;;;5131424;28;20411;-66
2022/01/28 09:02:50;;;;;;;21.27;14.70;;;;;;;;;;5130963;28;20254;-66
2022/01/28 09:05:16;;;;;;;31.90;15.48;;;;;;;;;;5130906;28;20155;-66
2022/01/28 09:07:42;;;;;;;28.83;16.63;;;;;;;;;;5130830;28;20199;-66
2022/01/28 09:10:18;;;;;;;21.17;14.15;;;;;;;;;;5130908;28;20162;-66
2022/01/28 09:15:29;;;;;;;24.45;15.05;;;;;;;;;;5130702;28;20188;-66
2022/01/28 09:17:55;;;;;;;24.42;15.63;;;;;;;;;;5130657;28;20162;-68
2022/01/28 09:20:21;;;;;;;29.65;16.60;;;;;;;;;;5130564;28;20162;-67
2022/01/28 09:22:47;;;;;;;23.57;14.37;;;;;;;;;;5130282;28;20587;-67
2022/01/28 09:25:13;;;;;;;20.20;15.07;;;;;;;;;;5130436;28;20378;-68
2022/01/28 09:27:39;;;;;;;22.40;14.93;;;;;;;;;;5130468;28;20435;-66
2022/01/28 09:30:05;;;;;;;22.27;15.43;;;;;;;;;;5130340;28;20882;-68
2022/01/28 09:32:31;;;;;;;22.05;14.77;;;;;;;;;;5130292;28;20414;-68
2022/01/28 09:34:57;;;;;;;21.67;15.30;;;;;;;;;;5116509;28;20162;-65
2022/01/28 09:37:23;;;;;;;19.55;14.00;;;;;;;;;;5116745;28;20439;-66
2022/01/28 09:39:49;;;;;;;20.93;14.07;;;;;;;;;;5116594;28;20162;-66
2022/01/28 09:42:19;;;;;;;20.73;13.50;;;;;;;;;;5116456;28;20973;-66
2022/01/28 09:44:45;;;;;;;23.38;14.02;;;;;;;;;;5116436;28;20170;-66
2022/01/28 09:47:11;;;;;;;19.13;13.55;;;;;;;;;;5116590;28;20235;-65
2022/01/28 09:49:39;;;;;;;20.80;13.90;;;;;;;;;;5116820;28;20269;-68
2022/01/28 09:52:05;;;;;;;18.67;13.13;;;;;;;;;;5116672;28;20163;-67
2022/01/28 09:54:31;;;;;;;22.35;14.90;;;;;;;;;;5098154;28;20522;-68
2022/01/28 09:56:59;;;;;;;20.23;13.52;;;;;;;;;;5116358;28;20163;-67
2022/01/28 09:59:25;;;;;;;12.63;10.35;;;;;;;;;;5116612;28;20169;-68
2022/01/28 10:01:51;;;;;;;16.93;10.23;;;;;;;;;;5097869;28;20198;-67
2022/01/28 10:04:18;;;;;;;11.75;9.77;;;;;;;;;;5116277;28;20899;-67
2022/01/28 10:06:44;;;;;;;18.73;14.23;;;;;;;;;;5116287;28;20163;-67
2022/01/28 10:09:11;;;;;;;19.60;15.50;;;;;;;;;;5097739;28;20592;-66
2022/01/28 10:11:39;;;;;;;17.70;13.40;;;;;;;;;;5116008;28;20406;-67
2022/01/28 10:14:10;;;;;;;16.55;12.70;;;;;;;;;;5115909;28;20447;-68
2022/01/28 10:16:36;;;;;;;17.92;12.63;;;;;;;;;;5115966;28;20204;-68
2022/01/28 10:19:04;;;;;;;17.63;13.00;;;;;;;;;;5115988;28;20249;-68
2022/01/28 10:21:40;;;;;;;21.17;15.10;;;;;;;;;;5115700;28;20430;-69
2022/01/28 10:24:06;;;;;;;23.83;15.73;;;;;;;;;;5115800;28;20705;-68
2022/01/28 10:26:38;;;;;;;20.95;15.27;;;;;;;;;;5115810;28;20277;-69
2022/01/28 10:29:06;;;;;;;18.48;14.18;;;;;;;;;;5115719;28;20576;-69
2022/01/28 10:31:40;;;;;;;16.33;13.85;;;;;;;;;;5115723;28;20278;-69
2022/01/28 10:34:17;;;;;;;18.05;13.00;;;;;;;;;;5115725;28;20165;-69
2022/01/28 10:36:46;;;;;;;16.85;13.20;;;;;;;;;;5115942;28;20588;-69
2022/01/28 10:39:16;;;;;;;16.73;13.10;;;;;;;;;;5115658;28;20212;-70
2022/01/28 10:41:53;;;;;;;14.52;11.90;;;;;;;;;;5115491;28;20204;-69
2022/01/28 10:44:19;;;;;;;15.82;12.60;;;;;;;;;;5115315;28;20169;-68
2022/01/28 10:46:51;;;;;;;13.45;11.43;;;;;;;;;;5114519;28;20162;-67
2022/01/28 10:49:17;;;;;;;14.15;12.10;;;;;;;;;;5115358;28;20171;-68
2022/01/28 10:51:44;;;;;;;20.10;14.48;;;;;;;;;;5115141;28;20167;-68
2022/01/28 10:54:14;;;;;;;24.23;17.00;;;;;;;;;;5096902;28;20170;-68
2022/01/28 10:56:54;;;;;;;28.48;18.90;;;;;;;;;;5096806;28;20428;-68
2022/01/28 10:59:23;;;;;;;26.95;17.40;;;;;;;;;;5115072;28;20166;-69
2022/01/28 11:01:49;;;;;;;20.73;16.20;;;;;;;;;;5096680;28;20210;-69
2022/01/28 11:04:16;;;;;;;20.23;15.25;;;;;;;;;;5114954;28;20166;-67
2022/01/28 11:06:42;;;;;;;19.07;15.00;;;;;;;;;;5114854;28;20159;-68
2022/01/28 11:09:10;;;;;;;14.83;11.37;;;;;;;;;;5096487;28;20397;-69
2022/01/28 11:11:36;;;;;;;13.77;11.80;;;;;;;;;;5114790;28;20375;-70
2022/01/28 11:14:02;;;;;;;12.27;11.00;;;;;;;;;;5114675;28;20397;-67
2022/01/28 11:16:29;;;;;;;13.53;11.50;;;;;;;;;;5114719;28;20412;-70
2022/01/28 11:18:56;;;;;;;13.70;11.40;;;;;;;;;;5096404;28;20394;-65
2022/01/28 11:21:40;;;;;;;13.27;11.10;;;;;;;;;;5114479;28;20755;-66
2022/01/28 11:24:11;;;;;;;12.57;11.10;;;;;;;;;;5114707;28;20444;-66
2022/01/28 11:26:45;;;;;;;21.80;11.30;;;;;;;;;;5114714;28;20408;-67
2022/01/28 11:29:25;;;;;;;14.40;11.60;;;;;;;;;;5096231;28;20439;-67
2022/01/28 11:31:52;;;;;;;14.60;11.23;;;;;;;;;;5114751;28;20400;-66
2022/01/28 11:34:21;;;;;;;11.90;10.23;;;;;;;;;;5114493;28;20492;-67
2022/01/28 11:36:47;;;;;;;12.37;10.60;;;;;;;;;;5114457;28;20432;-66
2022/01/28 11:39:28;;;;;;;11.47;10.37;;;;;;;;;;5114448;28;20409;-66
2022/01/28 11:42:02;;;;;;;15.13;11.90;;;;;;;;;;5114484;28;20495;-68
2022/01/28 11:44:47;;;;;;;14.30;12.83;;;;;;;;;;5114244;28;20868;-70
2022/01/28 11:47:21;;;;;;;14.13;12.73;;;;;;;;;;5114247;28;20404;-66
2022/01/28 11:49:54;;;;;;;14.27;12.40;;;;;;;;;;5095887;28;20424;-65
2022/01/28 11:52:21;;;;;;;14.20;12.80;;;;;;;;;;5114099;28;20400;-68
2022/01/28 11:54:47;;;;;;;16.57;12.00;;;;;;;;;;5114121;28;20397;-69
2022/01/28 11:57:14;;;;;;;13.77;12.37;;;;;;;;;;5113784;28;20487;-66
2022/01/28 11:59:40;;;;;;;12.40;11.20;;;;;;;;;;5114055;28;20417;-66
2022/01/28 12:02:06;;;;;;;12.70;11.53;;;;;;;;;;5113963;28;20915;-66
2022/01/28 12:04:34;;;;;;;14.37;11.83;;;;;;;;;;5114038;28;20437;-66
2022/01/28 12:07:02;;;;;;;12.17;11.17;;;;;;;;;;5113987;28;20397;-69
2022/01/28 12:09:28;;;;;;;11.27;10.20;;;;;;;;;;5114133;28;20407;-69
2022/01/28 12:11:55;;;;;;;12.90;11.70;;;;;;;;;;5113782;28;20864;-68
2022/01/28 12:14:41;;;;;;;11.93;10.90;;;;;;;;;;5113848;28;20495;-67
2022/01/28 12:17:46;;;;;;;12.13;11.00;;;;;;;;;;5065201;28;20435;-66
2022/01/28 12:20:15;;;;;;;10.77;9.97;;;;;;;;;;5031289;28;20441;-71
2022/01/28 12:22:59;;;;;;;11.93;10.93;;;;;;;;;;5031053;28;20576;-70
2022/01/28 12:25:37;;;;;;;12.23;10.90;;;;;;;;;;5082606;28;20414;-68
2022/01/28 12:28:19;;;;;;;11.80;10.80;;;;;;;;;;5114260;28;20401;-68
2022/01/28 12:31:08;;;;;;;12.50;11.37;;;;;;;;;;5114168;28;20985;-68
2022/01/28 12:33:39;;;;;;;11.33;10.33;;;;;;;;;;5103105;28;20438;-66
2022/01/28 12:36:08;;;;;;;10.83;9.90;;;;;;;;;;5113853;28;20890;-67
2022/01/28 12:38:37;;;;;;;12.80;11.57;;;;;;;;;;5095468;28;20445;-71
2022/01/28 12:41:08;;;;;;;12.53;11.10;;;;;;;;;;5113746;28;20442;-67
2022/01/28 12:43:34;;;;;;;12.80;11.60;;;;;;;;;;5113715;28;20966;-69
2022/01/28 12:46:13;;;;;;;12.43;11.13;;;;;;;;;;5113719;28;20472;-69
2022/01/28 12:48:50;;;;;;;11.87;10.77;;;;;;;;;;5095315;28;20983;-69
2022/01/28 12:51:16;;;;;;;11.13;10.03;;;;;;;;;;5113829;28;20411;-67
2022/01/28 12:53:42;;;;;;;12.40;11.20;;;;;;;;;;5113730;28;20407;-66
2022/01/28 12:56:09;;;;;;;13.30;12.00;;;;;;;;;;5113501;28;20418;-66
2022/01/28 12:58:38;;;;;;;12.77;11.60;;;;;;;;;;5113758;28;20431;-67
2022/01/28 13:01:08;;;;;;;11.03;10.13;;;;;;;;;;5113598;28;20463;-67
2022/01/28 13:03:39;;;;;;;11.47;10.37;;;;;;;;;;5113657;28;20470;-66
2022/01/28 13:08:59;;;;;;;11.90;10.93;;;;;;;;;;5115251;28;20502;-66
2022/01/28 13:11:26;;;;;;;13.63;12.23;;;;;;;;;;5117330;28;20409;-68
2022/01/28 13:13:54;;;;;;;14.37;12.40;;;;;;;;;;5117277;28;20460;-68
2022/01/28 13:16:29;;;;;;;15.37;11.93;;;;;;;;;;5117404;28;20415;-67
2022/01/28 13:18:56;;;;;;;15.80;12.13;;;;;;;;;;5117071;28;20761;-67
2022/01/28 13:21:23;;;;;;;10.97;10.07;;;;;;;;;;5117332;28;20449;-67
2022/01/28 13:23:49;;;;;;;12.10;10.60;;;;;;;;;;5116877;28;20467;-67
2022/01/28 13:26:15;;;;;;;11.03;9.90;;;;;;;;;;5116889;28;20405;-67
2022/01/28 13:28:41;;;;;;;14.23;12.73;;;;;;;;;;5116914;28;20491;-67
2022/01/28 13:31:07;;;;;;;14.67;13.23;;;;;;;;;;5098692;28;20426;-66
2022/01/28 13:33:33;;;;;;;17.00;13.40;;;;;;;;;;5116829;28;20495;-67
2022/01/28 13:36:01;;;;;;;17.60;13.83;;;;;;;;;;5116879;28;20412;-67
2022/01/28 13:38:34;;;;;;;15.37;13.77;;;;;;;;;;5116736;28;20408;-68
2022/01/28 13:41:00;;;;;;;15.13;12.80;;;;;;;;;;5116789;28;20416;-67
2022/01/28 13:43:26;;;;;;;13.67;12.30;;;;;;;;;;5098282;28;20549;-66
2022/01/28 13:46:04;;;;;;;15.23;11.70;;;;;;;;;;5116671;28;20416;-66
2022/01/28 13:48:34;;;;;;;12.07;10.83;;;;;;;;;;5116435;28;20499;-66
2022/01/28 13:51:12;;;;;;;12.43;11.23;;;;;;;;;;5116594;28;20883;-68
2022/01/28 13:56:31;;;;;;;13.93;11.77;;;;;;;;;;5116454;28;20404;-65
2022/01/28 13:58:57;;;;;;;13.77;10.67;;;;;;;;;;5116415;28;20397;-66
2022/01/28 14:01:24;;;;;;;12.83;11.40;;;;;;;;;;5116278;28;20427;-66
2022/01/28 14:04:00;;;;;;;11.23;8.73;;;;;;;;;;5115742;28;20504;-63
2022/01/28 14:06:30;;;;;;;14.50;10.77;;;;;;;;;;5116258;28;20448;-64
2022/01/28 14:09:05;;;;;;;11.60;10.40;;;;;;;;;;5116333;28;20441;-64
2022/01/28 14:11:37;;;;;;;10.70;9.63;;;;;;;;;;5116291;28;20400;-64
2022/01/28 14:14:15;;;;;;;13.63;8.90;;;;;;;;;;5115873;28;20404;-64
2022/01/28 14:16:41;;;;;;;9.60;8.70;;;;;;;;;;5115863;28;20404;-65
2022/01/28 14:19:07;;;;;;;11.83;10.40;;;;;;;;;;5115694;28;20891;-65
2022/01/28 14:21:33;;;;;;;14.73;11.30;;;;;;;;;;5115695;28;20918;-64
2022/01/28 14:23:59;;;;;;;12.23;11.00;;;;;;;;;;5115904;28;20436;-64
2022/01/28 14:26:25;;;;;;;11.93;10.70;;;;;;;;;;5115761;28;20431;-65
2022/01/28 14:31:23;;;;;;;9.90;9.00;;;;;;;;;;5115936;28;20610;-63
2022/01/28 14:33:50;;;;;;;14.50;9.43;;;;;;;;;;5115582;28;20412;-64
2022/01/28 14:36:16;;;;;;;9.97;8.83;;;;;;;;;;5115902;28;20405;-64
2022/01/28 14:38:49;;;;;;;10.23;8.60;;;;;;;;;;5115522;28;20441;-64
2022/01/28 14:41:15;;;;;;;13.83;10.23;;;;;;;;;;5115640;28;20393;-63
2022/01/28 14:43:42;;;;;;;13.03;9.23;;;;;;;;;;5115409;28;20968;-64
2022/01/28 14:46:08;;;;;;;12.03;9.50;;;;;;;;;;5115697;28;20492;-64
2022/01/28 14:48:34;;;;;;;9.83;8.93;;;;;;;;;;5115380;28;20408;-63
2022/01/28 14:51:00;;;;;;;12.73;9.83;;;;;;;;;;5115452;28;20499;-65
2022/01/28 14:53:26;;;;;;;13.10;9.30;;;;;;;;;;5115393;28;20774;-67
2022/01/28 14:55:52;;;;;;;12.10;9.70;;;;;;;;;;5115407;28;20400;-64
2022/01/28 14:58:18;;;;;;;9.57;8.70;;;;;;;;;;5115266;28;20420;-65
2022/01/28 15:00:44;;;;;;;9.47;8.40;;;;;;;;;;5115222;28;20458;-66
2022/01/28 15:03:10;;;;;;;7.77;7.07;;;;;;;;;;5115021;28;20960;-66
2022/01/28 15:05:37;;;;;;;6.70;6.10;;;;;;;;;;5115068;28;20436;-65
2022/01/28 15:08:11;;;;;;;12.23;5.80;;;;;;;;;;5115047;28;20405;-65
2022/01/28 15:10:38;;;;;;;6.87;6.33;;;;;;;;;;5114969;28;20453;-65
2022/01/28 15:13:05;;;;;;;6.70;6.30;;;;;;;;;;5114758;28;20902;-65
2022/01/28 15:15:31;;;;;;;7.30;6.70;;;;;;;;;;5115055;28;20412;-65
2022/01/28 15:17:57;;;;;;;10.87;7.17;;;;;;;;;;5115106;28;20397;-65
2022/01/28 15:20:27;;;;;;;8.00;7.20;;;;;;;;;;5096562;28;20432;-65
2022/01/28 15:22:53;;;;;;;8.30;7.50;;;;;;;;;;5114655;28;20479;-66
2022/01/28 15:25:19;;;;;;;7.27;6.50;;;;;;;;;;5114693;28;20400;-66
2022/01/28 15:27:46;;;;;;;7.67;7.07;;;;;;;;;;5114665;28;20878;-66
2022/01/28 15:35:58;;;;;;;8.90;7.13;;;;;;;;;;5114635;28;20443;-65
2022/01/28 15:38:24;;;;;;;10.00;7.60;;;;;;;;;;5114485;28;20899;-67
2022/01/28 15:40:50;;;;;;;12.27;8.20;;;;;;;;;;5114410;28;20443;-66
2022/01/28 15:43:16;;;;;;;8.50;7.60;;;;;;;;;;5114430;28;20503;-67
2022/01/28 15:45:46;;;;;;;8.20;7.40;;;;;;;;;;5114339;28;20823;-67
2022/01/28 15:48:12;;;;;;;8.77;7.93;;;;;;;;;;5114387;28;20408;-66
2022/01/28 15:50:38;;;;;;;9.30;7.60;;;;;;;;;;5114370;28;20416;-64
2022/01/28 15:53:04;;;;;;;11.97;8.70;;;;;;;;;;5103333;28;20431;-64
2022/01/28 15:55:30;;;;;;;8.60;7.70;;;;;;;;;;5114093;28;20439;-63
2022/01/28 15:57:56;;;;;;;9.60;8.57;;;;;;;;;;5113762;28;20412;-64
2022/01/28 16:00:22;;;;;;;15.57;10.10;;;;;;;;;;5113857;28;20419;-64
2022/01/28 16:02:48;;;;;;;38.80;19.30;;;;;;;;;;5113720;28;21033;-64
2022/01/28 16:05:15;;;;;;;39.83;20.80;;;;;;;;;;5113922;28;20409;-65